sensor_id;sensor_type;location;lat;lon;timestamp;pressure;altitude;pressure_sealevel;temperature;humidity
72896;BME280;61036;53.224;6.554;2023-05-18T00:01:47;102912.72;;;13.20;100.00
72896;BME280;61036;53.224;6.554;2023-05-18T00:04:12;102908.75;;;13.78;97.11
72896;BME280;61036;53.224;6.554;2023-05-18T00:06:38;102911.34;;;13.64;97.41
72896;BME280;61036;53.224;6.554;2023-05-18T00:09:04;102917.28;;;13.02;100.00
72896;BME280;61036;53.224;6.554;2023-05-18T00:11:29;102907.03;;;13.60;96.89
72896;BME280;61036;53.224;6.554;2023-05-18T00:13:55;102911.03;;;13.53;97.43
72896;BME280;61036;53.224;6.554;2023-05-18T00:16:21;102913.84;;;13.16;98.37
72896;BME280;61036;53.224;6.554;2023-05-18T00:18:46;102913.13;;;13.47;98.87
72896;BME280;61036;53.224;6.554;2023-05-18T00:21:12;102908.75;;;13.45;96.37
72896;BME280;61036;53.224;6.554;2023-05-18T00:23:40;102917.69;;;13.30;93.41
72896;BME280;61036;53.224;6.554;2023-05-18T00:26:07;102915.97;;;13.62;93.37
72896;BME280;61036;53.224;6.554;2023-05-18T00:28:32;102909.97;;;13.04;91.33
72896;BME280;61036;53.224;6.554;2023-05-18T00:30:58;102914.28;;;13.59;93.81
72896;BME280;61036;53.224;6.554;2023-05-18T00:33:24;102922.66;;;13.39;93.86
72896;BME280;61036;53.224;6.554;2023-05-18T00:35:50;102909.31;;;12.99;96.06
72896;BME280;61036;53.224;6.554;2023-05-18T00:38:15;102916.41;;;13.19;94.95
72896;BME280;61036;53.224;6.554;2023-05-18T00:40:42;102914.19;;;13.45;95.48
72896;BME280;61036;53.224;6.554;2023-05-18T00:43:10;102911.63;;;13.42;94.66
72896;BME280;61036;53.224;6.554;2023-05-18T00:45:35;102925.13;;;13.09;96.53
72896;BME280;61036;53.224;6.554;2023-05-18T00:48:01;102917.63;;;13.31;97.02
72896;BME280;61036;53.224;6.554;2023-05-18T00:50:27;102922.63;;;13.04;90.98
72896;BME280;61036;53.224;6.554;2023-05-18T00:52:52;102923.66;;;13.01;94.62
72896;BME280;61036;53.224;6.554;2023-05-18T00:55:19;102914.25;;;13.43;96.19
72896;BME280;61036;53.224;6.554;2023-05-18T00:57:44;102911.31;;;13.48;89.22
72896;BME280;61036;53.224;6.554;2023-05-18T01:00:12;102921.06;;;13.50;92.89
72896;BME280;61036;53.224;6.554;2023-05-18T01:02:39;102913.25;;;13.62;90.75
72896;BME280;61036;53.224;6.554;2023-05-18T01:05:11;102917.13;;;13.40;93.71
72896;BME280;61036;53.224;6.554;2023-05-18T01:07:40;102911.28;;;14.13;93.82
72896;BME280;61036;53.224;6.554;2023-05-18T01:10:12;102905.88;;;14.13;92.24
72896;BME280;61036;53.224;6.554;2023-05-18T01:12:49;102912.56;;;13.74;93.04
72896;BME280;61036;53.224;6.554;2023-05-18T01:15:37;102911.16;;;13.67;92.40
72896;BME280;61036;53.224;6.554;2023-05-18T01:18:26;102911.38;;;13.95;88.65
72896;BME280;61036;53.224;6.554;2023-05-18T01:24:48;102906.84;;;14.12;89.47
72896;BME280;61036;53.224;6.554;2023-05-18T01:26:50;102910.56;;;13.44;91.28
72896;BME280;61036;53.224;6.554;2023-05-18T01:29:24;102913.16;;;13.13;92.32
72896;BME280;61036;53.224;6.554;2023-05-18T01:31:51;102915.28;;;13.23;95.85
72896;BME280;61036;53.224;6.554;2023-05-18T01:34:17;102916.50;;;13.35;93.67
72896;BME280;61036;53.224;6.554;2023-05-18T01:36:42;102911.16;;;13.16;93.27
72896;BME280;61036;53.224;6.554;2023-05-18T01:39:08;102902.41;;;13.62;92.29
72896;BME280;61036;53.224;6.554;2023-05-18T01:41:48;102906.88;;;13.63;89.93
72896;BME280;61036;53.224;6.554;2023-05-18T01:44:33;102910.25;;;14.00;87.62
72896;BME280;61036;53.224;6.554;2023-05-18T01:47:03;102920.38;;;13.80;91.65
72896;BME280;61036;53.224;6.554;2023-05-18T01:52:03;102914.69;;;13.85;92.22
72896;BME280;61036;53.224;6.554;2023-05-18T01:54:30;102910.03;;;13.71;89.58
72896;BME280;61036;53.224;6.554;2023-05-18T01:56:57;102914.69;;;13.85;87.34
72896;BME280;61036;53.224;6.554;2023-05-18T01:59:23;102922.19;;;13.64;91.93
72896;BME280;61036;53.224;6.554;2023-05-18T02:01:50;102926.63;;;13.65;91.85
72896;BME280;61036;53.224;6.554;2023-05-18T02:04:16;102920.91;;;13.54;90.80
72896;BME280;61036;53.224;6.554;2023-05-18T02:06:41;102924.34;;;13.90;89.11
72896;BME280;61036;53.224;6.554;2023-05-18T02:09:07;102918.97;;;14.05;91.34
72896;BME280;61036;53.224;6.554;2023-05-18T02:11:33;102916.84;;;13.62;93.89
72896;BME280;61036;53.224;6.554;2023-05-18T02:13:59;102923.75;;;13.68;91.86
72896;BME280;61036;53.224;6.554;2023-05-18T02:16:25;102919.44;;;14.13;88.49
72896;BME280;61036;53.224;6.554;2023-05-18T02:18:51;102909.44;;;13.98;89.03
72896;BME280;61036;53.224;6.554;2023-05-18T02:21:17;102918.97;;;14.05;89.74
72896;BME280;61036;53.224;6.554;2023-05-18T02:23:43;102906.81;;;14.28;89.27
72896;BME280;61036;53.224;6.554;2023-05-18T02:26:08;102909.56;;;14.12;85.97
72896;BME280;61036;53.224;6.554;2023-05-18T02:28:34;102914.63;;;14.18;85.63
72896;BME280;61036;53.224;6.554;2023-05-18T02:31:08;102909.00;;;14.37;89.07
72896;BME280;61036;53.224;6.554;2023-05-18T02:33:34;102914.53;;;14.35;89.48
72896;BME280;61036;53.224;6.554;2023-05-18T02:36:11;102914.38;;;14.84;85.86
72896;BME280;61036;53.224;6.554;2023-05-18T02:38:38;102919.50;;;13.80;88.41
72896;BME280;61036;53.224;6.554;2023-05-18T02:41:06;102920.19;;;13.83;87.02
72896;BME280;61036;53.224;6.554;2023-05-18T02:43:32;102914.88;;;14.13;87.44
72896;BME280;61036;53.224;6.554;2023-05-18T02:45:59;102920.75;;;14.06;87.64
72896;BME280;61036;53.224;6.554;2023-05-18T02:48:25;102916.78;;;13.95;89.55
72896;BME280;61036;53.224;6.554;2023-05-18T02:50:52;102924.00;;;13.97;89.51
72896;BME280;61036;53.224;6.554;2023-05-18T02:53:18;102911.09;;;14.32;89.10
72896;BME280;61036;53.224;6.554;2023-05-18T02:55:44;102910.75;;;14.22;89.55
72896;BME280;61036;53.224;6.554;2023-05-18T02:58:14;102912.78;;;14.18;87.09
72896;BME280;61036;53.224;6.554;2023-05-18T03:00:59;102921.53;;;13.92;88.45
72896;BME280;61036;53.224;6.554;2023-05-18T03:03:28;102920.38;;;12.77;89.55
72896;BME280;61036;53.224;6.554;2023-05-18T03:05:54;102920.28;;;13.66;89.78
72896;BME280;61036;53.224;6.554;2023-05-18T03:08:20;102919.50;;;13.95;89.69
72896;BME280;61036;53.224;6.554;2023-05-18T03:10:48;102920.69;;;13.74;90.26
72896;BME280;61036;53.224;6.554;2023-05-18T03:13:14;102918.81;;;13.92;91.40
72896;BME280;61036;53.224;6.554;2023-05-18T03:15:40;102903.50;;;14.07;90.49
72896;BME280;61036;53.224;6.554;2023-05-18T03:18:05;102915.59;;;14.17;89.69
72896;BME280;61036;53.224;6.554;2023-05-18T03:20:31;102916.97;;;14.40;90.02
72896;BME280;61036;53.224;6.554;2023-05-18T03:22:57;102923.47;;;14.06;91.65
72896;BME280;61036;53.224;6.554;2023-05-18T03:25:23;102920.69;;;13.74;91.44
72896;BME280;61036;53.224;6.554;2023-05-18T03:27:51;102921.50;;;13.76;93.70
72896;BME280;61036;53.224;6.554;2023-05-18T03:30:18;102923.00;;;13.66;95.10
72896;BME280;61036;53.224;6.554;2023-05-18T03:32:45;102914.19;;;14.26;92.73
72896;BME280;61036;53.224;6.554;2023-05-18T03:35:12;102927.81;;;13.92;92.58
72896;BME280;61036;53.224;6.554;2023-05-18T03:37:37;102930.69;;;13.73;92.64
72896;BME280;61036;53.224;6.554;2023-05-18T03:40:14;102920.56;;;14.25;91.49
72896;BME280;61036;53.224;6.554;2023-05-18T03:42:41;102929.88;;;13.71;91.89
72896;BME280;61036;53.224;6.554;2023-05-18T03:45:08;102931.72;;;13.71;96.54
72896;BME280;61036;53.224;6.554;2023-05-18T03:47:35;102924.78;;;14.14;92.54
72896;BME280;61036;53.224;6.554;2023-05-18T03:50:01;102921.97;;;14.16;92.23
72896;BME280;61036;53.224;6.554;2023-05-18T03:52:27;102932.00;;;13.82;91.44
72896;BME280;61036;53.224;6.554;2023-05-18T03:54:55;102923.38;;;13.58;92.78
72896;BME280;61036;53.224;6.554;2023-05-18T03:57:21;102924.34;;;13.90;93.54
72896;BME280;61036;53.224;6.554;2023-05-18T03:59:46;102921.34;;;13.79;88.03
72896;BME280;61036;53.224;6.554;2023-05-18T04:02:12;102925.84;;;14.12;90.15
72896;BME280;61036;53.224;6.554;2023-05-18T04:04:38;102927.69;;;14.11;90.20
72896;BME280;61036;53.224;6.554;2023-05-18T04:07:10;102924.09;;;14.27;91.46
72896;BME280;61036;53.224;6.554;2023-05-18T04:09:37;102935.09;;;14.39;87.24
72896;BME280;61036;53.224;6.554;2023-05-18T04:12:03;102938.00;;;14.21;90.03
72896;BME280;61036;53.224;6.554;2023-05-18T04:14:30;102920.75;;;14.22;88.87
72896;BME280;61036;53.224;6.554;2023-05-18T04:17:00;102933.38;;;14.38;92.09
72896;BME280;61036;53.224;6.554;2023-05-18T04:19:36;102941.41;;;14.72;90.20
72896;BME280;61036;53.224;6.554;2023-05-18T04:22:02;102937.78;;;13.92;91.62
72896;BME280;61036;53.224;6.554;2023-05-18T04:24:31;102939.66;;;14.39;89.50
72896;BME280;61036;53.224;6.554;2023-05-18T04:27:01;102940.00;;;14.01;91.47
72896;BME280;61036;53.224;6.554;2023-05-18T04:29:28;102939.66;;;14.55;90.90
72896;BME280;61036;53.224;6.554;2023-05-18T04:31:57;102947.03;;;14.69;92.09
72896;BME280;61036;53.224;6.554;2023-05-18T04:34:26;102940.88;;;14.49;90.67
72896;BME280;61036;53.224;6.554;2023-05-18T04:36:52;102944.47;;;14.18;87.75
72896;BME280;61036;53.224;6.554;2023-05-18T04:39:23;102945.34;;;14.18;88.24
72896;BME280;61036;53.224;6.554;2023-05-18T04:41:49;102943.50;;;13.87;91.81
72896;BME280;61036;53.224;6.554;2023-05-18T04:44:15;102944.41;;;14.51;91.87
72896;BME280;61036;53.224;6.554;2023-05-18T04:46:43;102948.59;;;14.25;88.93
72896;BME280;61036;53.224;6.554;2023-05-18T04:49:12;102951.16;;;14.60;87.84
72896;BME280;61036;53.224;6.554;2023-05-18T04:51:38;102954.16;;;14.85;90.56
72896;BME280;61036;53.224;6.554;2023-05-18T04:54:04;102960.22;;;14.43;89.03
72896;BME280;61036;53.224;6.554;2023-05-18T04:56:30;102971.34;;;14.23;86.33
72896;BME280;61036;53.224;6.554;2023-05-18T04:58:56;102966.44;;;14.13;90.08
72896;BME280;61036;53.224;6.554;2023-05-18T05:01:24;102975.09;;;14.04;86.95
72896;BME280;61036;53.224;6.554;2023-05-18T05:03:51;102973.69;;;14.13;88.62
72896;BME280;61036;53.224;6.554;2023-05-18T05:06:16;102980.34;;;14.07;87.58
72896;BME280;61036;53.224;6.554;2023-05-18T05:08:42;102976.19;;;14.65;87.00
72896;BME280;61036;53.224;6.554;2023-05-18T05:11:07;102982.91;;;13.77;89.91
72896;BME280;61036;53.224;6.554;2023-05-18T05:13:33;102981.91;;;13.62;89.11
72896;BME280;61036;53.224;6.554;2023-05-18T05:16:01;102982.34;;;14.04;87.31
72896;BME280;61036;53.224;6.554;2023-05-18T05:18:26;102980.16;;;14.10;85.43
72896;BME280;61036;53.224;6.554;2023-05-18T05:20:53;102982.78;;;13.96;86.84
72896;BME280;61036;53.224;6.554;2023-05-18T05:23:18;102982.34;;;13.88;85.98
72896;BME280;61036;53.224;6.554;2023-05-18T05:25:44;102987.91;;;13.52;86.52
72896;BME280;61036;53.224;6.554;2023-05-18T05:28:10;102982.00;;;14.10;86.12
72896;BME280;61036;53.224;6.554;2023-05-18T05:30:36;102975.41;;;14.47;84.55
72896;BME280;61036;53.224;6.554;2023-05-18T05:33:01;102980.56;;;14.68;80.56
72896;BME280;61036;53.224;6.554;2023-05-18T05:35:27;102982.63;;;13.66;84.72
72896;BME280;61036;53.224;6.554;2023-05-18T05:37:53;102970.50;;;14.54;80.79
72896;BME280;61036;53.224;6.554;2023-05-18T05:40:19;102978.13;;;15.09;82.67
72896;BME280;61036;53.224;6.554;2023-05-18T05:42:45;102983.91;;;15.03;81.91
72896;BME280;61036;53.224;6.554;2023-05-18T05:45:11;102979.41;;;14.88;84.79
72896;BME280;61036;53.224;6.554;2023-05-18T05:47:43;102983.66;;;15.38;82.71
72896;BME280;61036;53.224;6.554;2023-05-18T05:50:09;102997.09;;;14.31;86.72
72896;BME280;61036;53.224;6.554;2023-05-18T05:52:35;102984.84;;;14.56;82.50
72896;BME280;61036;53.224;6.554;2023-05-18T05:55:02;102988.28;;;14.59;82.12
72896;BME280;61036;53.224;6.554;2023-05-18T05:57:29;102993.09;;;14.70;84.06
72896;BME280;61036;53.224;6.554;2023-05-18T05:59:55;103005.56;;;14.09;84.48
72896;BME280;61036;53.224;6.554;2023-05-18T06:02:20;102993.09;;;14.70;81.41
72896;BME280;61036;53.224;6.554;2023-05-18T06:04:46;102988.47;;;15.32;82.56
72896;BME280;61036;53.224;6.554;2023-05-18T06:07:11;102993.81;;;15.04;80.27
72896;BME280;61036;53.224;6.554;2023-05-18T06:09:37;102995.28;;;15.09;77.35
72896;BME280;61036;53.224;6.554;2023-05-18T06:12:03;102998.44;;;15.62;80.78
72896;BME280;61036;53.224;6.554;2023-05-18T06:14:29;102999.41;;;15.17;79.12
72896;BME280;61036;53.224;6.554;2023-05-18T06:16:55;103004.88;;;15.01;80.13
72896;BME280;61036;53.224;6.554;2023-05-18T06:19:21;103000.34;;;15.46;77.46
72896;BME280;61036;53.224;6.554;2023-05-18T06:21:47;103010.59;;;14.96;80.70
72896;BME280;61036;53.224;6.554;2023-05-18T06:24:13;103007.38;;;15.20;81.23
72896;BME280;61036;53.224;6.554;2023-05-18T06:26:42;103015.59;;;15.18;80.85
72896;BME280;61036;53.224;6.554;2023-05-18T06:29:37;103009.72;;;15.26;80.68
72896;BME280;61036;53.224;6.554;2023-05-18T06:32:13;103006.34;;;15.06;79.75
72896;BME280;61036;53.224;6.554;2023-05-18T06:34:41;103009.91;;;14.93;85.04
72896;BME280;61036;53.224;6.554;2023-05-18T06:37:10;103016.97;;;14.32;78.40
72896;BME280;61036;53.224;6.554;2023-05-18T06:39:36;103013.84;;;14.87;76.91
72896;BME280;61036;53.224;6.554;2023-05-18T06:42:02;103010.41;;;15.29;75.04
72896;BME280;61036;53.224;6.554;2023-05-18T06:44:32;103013.31;;;15.26;72.89
72896;BME280;61036;53.224;6.554;2023-05-18T06:47:04;103011.56;;;15.55;73.52
72896;BME280;61036;53.224;6.554;2023-05-18T06:49:30;103013.19;;;14.98;78.61
72896;BME280;61036;53.224;6.554;2023-05-18T06:51:56;103015.16;;;14.80;80.16
72896;BME280;61036;53.224;6.554;2023-05-18T06:54:21;103022.44;;;14.95;81.56
72896;BME280;61036;53.224;6.554;2023-05-18T06:56:47;103022.56;;;15.38;78.08
72896;BME280;61036;53.224;6.554;2023-05-18T06:59:14;103015.53;;;15.20;76.60
72896;BME280;61036;53.224;6.554;2023-05-18T07:01:40;103014.78;;;15.32;77.49
72896;BME280;61036;53.224;6.554;2023-05-18T07:04:06;103022.69;;;15.51;77.61
72896;BME280;61036;53.224;6.554;2023-05-18T07:06:31;103024.31;;;15.09;76.65
72896;BME280;61036;53.224;6.554;2023-05-18T07:08:57;103020.16;;;15.48;75.37
72896;BME280;61036;53.224;6.554;2023-05-18T07:11:22;103026.56;;;14.06;81.46
72896;BME280;61036;53.224;6.554;2023-05-18T07:13:48;103019.75;;;15.70;72.48
72896;BME280;61036;53.224;6.554;2023-05-18T07:16:13;103009.09;;;16.10;71.78
72896;BME280;61036;53.224;6.554;2023-05-18T07:18:39;103016.47;;;16.63;64.28
72896;BME280;61036;53.224;6.554;2023-05-18T07:21:06;103016.06;;;16.84;67.70
72896;BME280;61036;53.224;6.554;2023-05-18T07:23:31;103012.47;;;16.69;66.86
72896;BME280;61036;53.224;6.554;2023-05-18T07:25:57;103024.81;;;15.90;70.07
72896;BME280;61036;53.224;6.554;2023-05-18T07:28:22;103012.78;;;16.64;66.57
72896;BME280;61036;53.224;6.554;2023-05-18T07:30:48;103024.44;;;16.25;63.32
72896;BME280;61036;53.224;6.554;2023-05-18T07:33:14;103024.78;;;16.48;60.24
72896;BME280;61036;53.224;6.554;2023-05-18T07:35:39;103026.41;;;17.06;61.56
72896;BME280;61036;53.224;6.554;2023-05-18T07:38:05;103026.28;;;16.10;61.57
72896;BME280;61036;53.224;6.554;2023-05-18T07:40:30;103034.13;;;15.72;73.33
72896;BME280;61036;53.224;6.554;2023-05-18T07:42:56;103033.28;;;16.14;67.47
72896;BME280;61036;53.224;6.554;2023-05-18T07:45:21;103031.53;;;16.13;67.61
72896;BME280;61036;53.224;6.554;2023-05-18T07:47:48;103029.00;;;17.07;63.78
72896;BME280;61036;53.224;6.554;2023-05-18T07:50:13;103032.28;;;17.65;59.85
72896;BME280;61036;53.224;6.554;2023-05-18T07:52:39;103028.16;;;16.51;67.42
72896;BME280;61036;53.224;6.554;2023-05-18T07:55:05;103031.63;;;15.83;72.16
72896;BME280;61036;53.224;6.554;2023-05-18T07:57:31;103029.13;;;16.64;70.66
72896;BME280;61036;53.224;6.554;2023-05-18T07:59:57;103027.88;;;17.24;64.73
72896;BME280;61036;53.224;6.554;2023-05-18T08:02:23;103035.22;;;16.41;68.70
72896;BME280;61036;53.224;6.554;2023-05-18T08:04:48;103032.16;;;16.60;67.77
72896;BME280;61036;53.224;6.554;2023-05-18T08:07:14;103032.69;;;16.09;65.62
72896;BME280;61036;53.224;6.554;2023-05-18T08:09:39;103028.03;;;17.61;63.22
72896;BME280;61036;53.224;6.554;2023-05-18T08:12:05;103017.25;;;16.65;63.56
72896;BME280;61036;53.224;6.554;2023-05-18T08:14:32;103016.88;;;16.02;66.47
72896;BME280;61036;53.224;6.554;2023-05-18T08:16:57;103015.09;;;17.25;63.83
72896;BME280;61036;53.224;6.554;2023-05-18T08:19:23;103026.13;;;16.96;63.32
72896;BME280;61036;53.224;6.554;2023-05-18T08:21:49;103019.50;;;17.00;59.37
72896;BME280;61036;53.224;6.554;2023-05-18T08:24:14;103018.66;;;17.65;72.80
72896;BME280;61036;53.224;6.554;2023-05-18T08:26:40;103009.72;;;17.10;57.66
72896;BME280;61036;53.224;6.554;2023-05-18T08:29:05;103014.91;;;18.43;55.64
72896;BME280;61036;53.224;6.554;2023-05-18T08:31:38;103014.88;;;17.93;57.66
72896;BME280;61036;53.224;6.554;2023-05-18T08:34:05;103012.84;;;17.44;60.88
72896;BME280;61036;53.224;6.554;2023-05-18T08:36:33;103014.41;;;18.25;61.17
72896;BME280;61036;53.224;6.554;2023-05-18T08:38:58;103012.31;;;18.28;53.02
72896;BME280;61036;53.224;6.554;2023-05-18T08:42:11;103013.31;;;18.64;53.24
72896;BME280;61036;53.224;6.554;2023-05-18T08:44:57;103007.06;;;19.34;56.31
72896;BME280;61036;53.224;6.554;2023-05-18T08:47:27;103009.84;;;19.10;53.58
72896;BME280;61036;53.224;6.554;2023-05-18T08:49:55;103005.72;;;19.40;53.51
72896;BME280;61036;53.224;6.554;2023-05-18T08:52:26;103004.41;;;19.22;57.14
72896;BME280;61036;53.224;6.554;2023-05-18T08:54:53;103004.34;;;20.15;54.05
72896;BME280;61036;53.224;6.554;2023-05-18T08:57:20;103004.81;;;18.93;55.64
72896;BME280;61036;53.224;6.554;2023-05-18T08:59:47;103001.97;;;20.32;51.19
72896;BME280;61036;53.224;6.554;2023-05-18T09:02:13;102998.53;;;19.50;47.93
72896;BME280;61036;53.224;6.554;2023-05-18T09:04:40;103000.97;;;19.31;56.31
72896;BME280;61036;53.224;6.554;2023-05-18T09:07:08;103011.28;;;18.05;67.94
72896;BME280;61036;53.224;6.554;2023-05-18T09:09:34;103002.81;;;18.95;63.99
72896;BME280;61036;53.224;6.554;2023-05-18T09:12:00;103003.69;;;18.22;69.93
72896;BME280;61036;53.224;6.554;2023-05-18T09:14:27;103010.03;;;17.58;60.64
72896;BME280;61036;53.224;6.554;2023-05-18T09:16:53;103005.19;;;18.26;57.01
72896;BME280;61036;53.224;6.554;2023-05-18T09:19:19;103008.09;;;17.86;66.32
72896;BME280;61036;53.224;6.554;2023-05-18T09:21:45;103003.56;;;17.47;57.23
72896;BME280;61036;53.224;6.554;2023-05-18T09:24:11;102999.53;;;18.16;58.37
72896;BME280;61036;53.224;6.554;2023-05-18T09:26:39;103003.72;;;19.07;62.02
72896;BME280;61036;53.224;6.554;2023-05-18T09:29:15;103002.13;;;18.67;59.65
72896;BME280;61036;53.224;6.554;2023-05-18T09:31:45;102998.00;;;19.80;47.77
72896;BME280;61036;53.224;6.554;2023-05-18T09:34:11;102993.25;;;20.39;49.18
72896;BME280;61036;53.224;6.554;2023-05-18T09:36:37;102994.63;;;20.44;49.57
72896;BME280;61036;53.224;6.554;2023-05-18T09:39:07;103000.31;;;18.92;53.02
72896;BME280;61036;53.224;6.554;2023-05-18T09:41:36;102994.19;;;19.48;50.63
72896;BME280;61036;53.224;6.554;2023-05-18T09:44:02;102996.81;;;17.40;54.53
72896;BME280;61036;53.224;6.554;2023-05-18T09:46:35;102996.72;;;18.55;58.50
72896;BME280;61036;53.224;6.554;2023-05-18T09:49:02;102991.84;;;19.19;51.50
72896;BME280;61036;53.224;6.554;2023-05-18T09:51:28;103001.38;;;18.28;58.46
72896;BME280;61036;53.224;6.554;2023-05-18T09:53:56;103001.41;;;17.65;59.33
72896;BME280;61036;53.224;6.554;2023-05-18T09:56:23;103000.28;;;17.29;60.96
72896;BME280;61036;53.224;6.554;2023-05-18T09:58:48;102999.25;;;17.95;58.21
72896;BME280;61036;53.224;6.554;2023-05-18T10:01:14;102989.06;;;17.72;61.54
72896;BME280;61036;53.224;6.554;2023-05-18T10:03:40;102996.91;;;18.27;66.84
72896;BME280;61036;53.224;6.554;2023-05-18T10:06:07;102991.97;;;19.17;59.38
72896;BME280;61036;53.224;6.554;2023-05-18T10:08:34;102989.81;;;19.92;60.99
72896;BME280;61036;53.224;6.554;2023-05-18T10:11:00;102994.50;;;18.96;58.44
72896;BME280;61036;53.224;6.554;2023-05-18T10:13:27;102985.16;;;18.51;59.04
72896;BME280;61036;53.224;6.554;2023-05-18T10:15:57;102986.63;;;18.92;63.16
72896;BME280;61036;53.224;6.554;2023-05-18T10:18:25;102981.50;;;18.63;68.79
72896;BME280;61036;53.224;6.554;2023-05-18T10:20:52;102991.47;;;18.15;72.41
72896;BME280;61036;53.224;6.554;2023-05-18T10:23:19;102983.88;;;17.94;72.07
72896;BME280;61036;53.224;6.554;2023-05-18T10:25:46;102978.34;;;18.20;71.04
72896;BME280;61036;53.224;6.554;2023-05-18T10:28:17;102981.75;;;18.11;76.90
72896;BME280;61036;53.224;6.554;2023-05-18T10:30:45;102978.81;;;17.37;74.64
72896;BME280;61036;53.224;6.554;2023-05-18T10:33:12;102969.78;;;17.88;67.56
72896;BME280;61036;53.224;6.554;2023-05-18T10:35:38;102976.34;;;17.85;69.29
72896;BME280;61036;53.224;6.554;2023-05-18T10:38:04;102972.97;;;18.31;71.09
72896;BME280;61036;53.224;6.554;2023-05-18T10:40:32;102969.56;;;18.40;72.39
72896;BME280;61036;53.224;6.554;2023-05-18T10:43:00;102967.72;;;18.89;63.72
72896;BME280;61036;53.224;6.554;2023-05-18T10:45:27;102975.31;;;19.56;67.37
72896;BME280;61036;53.224;6.554;2023-05-18T10:47:53;102976.97;;;19.34;63.00
72896;BME280;61036;53.224;6.554;2023-05-18T10:50:22;102968.63;;;18.52;63.85
72896;BME280;61036;53.224;6.554;2023-05-18T10:52:50;102968.53;;;18.54;64.59
72896;BME280;61036;53.224;6.554;2023-05-18T10:55:16;102963.47;;;18.61;65.97
72896;BME280;61036;53.224;6.554;2023-05-18T10:57:51;102974.72;;;19.28;59.30
72896;BME280;61036;53.224;6.554;2023-05-18T11:00:18;102968.34;;;18.81;65.70
72896;BME280;61036;53.224;6.554;2023-05-18T11:02:45;102966.97;;;19.11;58.06
72896;BME280;61036;53.224;6.554;2023-05-18T11:05:11;102967.63;;;18.90;62.58
72896;BME280;61036;53.224;6.554;2023-05-18T11:07:37;102969.22;;;19.17;66.60
72896;BME280;61036;53.224;6.554;2023-05-18T11:10:08;102968.38;;;19.16;57.83
72896;BME280;61036;53.224;6.554;2023-05-18T11:12:36;102966.94;;;19.57;55.85
72896;BME280;61036;53.224;6.554;2023-05-18T11:15:03;102972.22;;;18.90;61.64
72896;BME280;61036;53.224;6.554;2023-05-18T11:17:29;102959.78;;;19.21;68.47
72896;BME280;61036;53.224;6.554;2023-05-18T11:22:51;102974.94;;;19.14;76.67
72896;BME280;61036;53.224;6.554;2023-05-18T11:27:58;102963.75;;;19.17;63.34
72896;BME280;61036;53.224;6.554;2023-05-18T11:33:27;102969.69;;;19.57;62.67
72896;BME280;61036;53.224;6.554;2023-05-18T11:36:01;102966.69;;;19.49;63.41
72896;BME280;61036;53.224;6.554;2023-05-18T11:41:37;102965.56;;;20.64;58.89
72896;BME280;61036;53.224;6.554;2023-05-18T11:44:14;102958.47;;;20.50;60.96
72896;BME280;61036;53.224;6.554;2023-05-18T11:49:15;102955.69;;;20.07;64.03
72896;BME280;61036;53.224;6.554;2023-05-18T11:52:07;102959.44;;;20.72;54.06
72896;BME280;61036;53.224;6.554;2023-05-18T11:54:40;102957.28;;;20.21;53.54
72896;BME280;61036;53.224;6.554;2023-05-18T11:57:07;102955.88;;;19.48;56.21
72896;BME280;61036;53.224;6.554;2023-05-18T11:59:36;102954.25;;;19.45;61.18
72896;BME280;61036;53.224;6.554;2023-05-18T12:02:03;102954.56;;;19.64;69.06
72896;BME280;61036;53.224;6.554;2023-05-18T12:04:29;102941.38;;;19.92;65.75
72896;BME280;61036;53.224;6.554;2023-05-18T12:06:56;102938.75;;;20.02;68.34
72896;BME280;61036;53.224;6.554;2023-05-18T12:09:23;102940.25;;;19.95;56.86
72896;BME280;61036;53.224;6.554;2023-05-18T12:11:53;102933.72;;;20.52;59.48
72896;BME280;61036;53.224;6.554;2023-05-18T12:14:19;102931.91;;;19.96;60.50
72896;BME280;61036;53.224;6.554;2023-05-18T12:16:46;102938.63;;;20.03;52.57
72896;BME280;61036;53.224;6.554;2023-05-18T12:19:13;102937.75;;;19.69;68.69
72896;BME280;61036;53.224;6.554;2023-05-18T12:21:38;102936.38;;;19.06;59.27
72896;BME280;61036;53.224;6.554;2023-05-18T12:24:04;102936.69;;;18.90;63.51
72896;BME280;61036;53.224;6.554;2023-05-18T12:26:30;102927.91;;;20.00;65.99
72896;BME280;61036;53.224;6.554;2023-05-18T12:28:58;102933.56;;;20.42;58.20
72896;BME280;61036;53.224;6.554;2023-05-18T12:31:24;102928.53;;;19.70;67.64
72896;BME280;61036;53.224;6.554;2023-05-18T12:33:52;102931.09;;;19.27;68.26
72896;BME280;61036;53.224;6.554;2023-05-18T12:36:18;102928.44;;;18.79;65.11
72896;BME280;61036;53.224;6.554;2023-05-18T12:38:47;102932.09;;;19.48;72.61
72896;BME280;61036;53.224;6.554;2023-05-18T12:41:24;102927.09;;;20.43;58.02
72896;BME280;61036;53.224;6.554;2023-05-18T12:43:51;102926.94;;;19.79;63.77
72896;BME280;61036;53.224;6.554;2023-05-18T12:46:22;102924.66;;;20.29;66.02
72896;BME280;61036;53.224;6.554;2023-05-18T12:48:56;102927.00;;;19.55;65.03
72896;BME280;61036;53.224;6.554;2023-05-18T12:51:22;102927.63;;;19.01;74.99
72896;BME280;61036;53.224;6.554;2023-05-18T12:53:49;102926.13;;;19.43;62.69
72896;BME280;61036;53.224;6.554;2023-05-18T12:56:15;102926.75;;;19.35;70.14
72896;BME280;61036;53.224;6.554;2023-05-18T12:58:55;102923.06;;;19.70;66.61
72896;BME280;61036;53.224;6.554;2023-05-18T13:01:21;102920.09;;;20.50;74.98
72896;BME280;61036;53.224;6.554;2023-05-18T13:03:54;102922.72;;;19.75;72.89
72896;BME280;61036;53.224;6.554;2023-05-18T13:06:20;102927.00;;;19.32;72.60
72896;BME280;61036;53.224;6.554;2023-05-18T13:08:46;102920.19;;;20.05;74.87
72896;BME280;61036;53.224;6.554;2023-05-18T13:11:12;102916.94;;;20.23;72.89
72896;BME280;61036;53.224;6.554;2023-05-18T13:16:25;102913.69;;;20.29;63.50